createdAt,value
2023-04-20T00:01:36.275Z,15.77
2023-04-20T00:04:04.567Z,15.74
2023-04-20T00:06:34.166Z,15.69
2023-04-20T00:09:02.123Z,15.70
2023-04-20T00:11:30.052Z,15.68
2023-04-20T00:13:57.553Z,15.66
2023-04-20T00:16:26.252Z,15.65
2023-04-20T00:18:54.223Z,15.70
2023-04-20T00:21:25.207Z,15.69
2023-04-20T00:23:52.698Z,15.64
2023-04-20T00:26:21.263Z,15.61
2023-04-20T00:28:49.226Z,15.56
2023-04-20T00:31:16.853Z,15.60
2023-04-20T00:33:44.518Z,15.57
2023-04-20T00:36:12.387Z,15.54
2023-04-20T00:38:39.852Z,15.49
2023-04-20T00:41:07.784Z,15.52
2023-04-20T00:43:36.171Z,15.51
2023-04-20T00:46:04.026Z,15.54
2023-04-20T00:48:31.938Z,15.51
2023-04-20T00:50:59.451Z,15.46
2023-04-20T00:53:26.638Z,15.45
2023-04-20T00:58:29.854Z,15.45
2023-04-20T01:00:57.767Z,15.39
2023-04-20T01:03:25.741Z,15.37
2023-04-20T01:05:54.027Z,15.37
2023-04-20T01:08:26.171Z,15.40
2023-04-20T01:10:54.508Z,15.41
2023-04-20T01:13:22.213Z,15.42
2023-04-20T01:15:50.078Z,15.39
2023-04-20T01:18:20.063Z,15.35
2023-04-20T01:20:48.025Z,15.31
2023-04-20T01:23:16.069Z,15.20
2023-04-20T01:25:44.182Z,15.08
2023-04-20T01:28:14.542Z,14.97
2023-04-20T01:30:43.018Z,14.94
2023-04-20T01:33:10.706Z,14.91
2023-04-20T01:35:38.940Z,14.79
2023-04-20T01:38:06.892Z,14.76
2023-04-20T01:40:35.354Z,14.76
2023-04-20T01:43:03.289Z,14.82
2023-04-20T01:45:31.426Z,14.79
2023-04-20T01:47:59.594Z,14.83
2023-04-20T01:50:27.240Z,14.90
2023-04-20T01:52:55.666Z,14.88
2023-04-20T01:55:23.636Z,14.92
2023-04-20T01:57:51.719Z,14.94
2023-04-20T02:00:20.423Z,14.96
2023-04-20T02:02:48.463Z,14.93
2023-04-20T02:05:16.224Z,14.89
2023-04-20T02:07:43.742Z,14.89
2023-04-20T02:10:12.245Z,14.91
2023-04-20T02:12:39.895Z,14.92
2023-04-20T02:15:10.318Z,14.92
2023-04-20T02:17:38.322Z,14.94
2023-04-20T02:20:11.969Z,14.96
2023-04-20T02:22:40.162Z,14.98
2023-04-20T02:25:07.992Z,14.95
2023-04-20T02:27:35.700Z,14.97
2023-04-20T02:30:04.341Z,14.98
2023-04-20T02:32:32.339Z,14.97
2023-04-20T02:35:00.069Z,15.04
2023-04-20T02:37:27.721Z,15.04
2023-04-20T02:39:55.775Z,15.07
2023-04-20T02:42:23.877Z,15.07
2023-04-20T02:44:52.999Z,15.08
2023-04-20T02:47:20.900Z,15.08
2023-04-20T02:49:48.486Z,15.04
2023-04-20T02:52:15.714Z,15.06
2023-04-20T02:54:43.582Z,15.08
2023-04-20T02:57:11.803Z,15.08
2023-04-20T02:59:39.875Z,15.07
2023-04-20T03:02:08.150Z,15.07
2023-04-20T03:04:35.547Z,15.09
2023-04-20T03:07:04.971Z,15.05
2023-04-20T03:09:32.899Z,15.05
2023-04-20T03:12:02.634Z,15.01
2023-04-20T03:14:31.195Z,14.97
2023-04-20T03:16:59.476Z,14.94
2023-04-20T03:19:27.652Z,15.00
2023-04-20T03:21:55.804Z,14.94
2023-04-20T03:24:24.209Z,14.86
2023-04-20T03:26:52.306Z,14.87
2023-04-20T03:29:20.569Z,14.89
2023-04-20T03:31:48.809Z,14.94
2023-04-20T03:34:16.489Z,14.93
2023-04-20T03:36:44.537Z,14.95
2023-04-20T03:39:12.573Z,14.97
2023-04-20T03:41:40.259Z,14.97
2023-04-20T03:44:08.635Z,14.95
2023-04-20T03:46:36.543Z,14.95
2023-04-20T03:49:04.587Z,14.91
2023-04-20T03:51:32.621Z,14.93
2023-04-20T03:54:00.598Z,14.96
2023-04-20T03:56:28.598Z,15.00
2023-04-20T03:58:56.188Z,14.99
2023-04-20T04:01:24.852Z,14.98
2023-04-20T04:03:52.940Z,14.95
2023-04-20T04:06:20.766Z,14.96
2023-04-20T04:08:48.821Z,14.91
2023-04-20T04:11:16.640Z,14.92
2023-04-20T04:13:44.609Z,14.87
2023-04-20T04:16:12.522Z,14.84
2023-04-20T04:18:44.016Z,14.75
2023-04-20T04:21:11.592Z,14.71
2023-04-20T04:23:39.232Z,14.77
2023-04-20T04:26:07.433Z,14.76
2023-04-20T04:28:35.683Z,14.74
2023-04-20T04:31:06.091Z,14.75
2023-04-20T04:33:34.352Z,14.82
2023-04-20T04:36:02.657Z,14.78
2023-04-20T04:38:31.718Z,14.75
2023-04-20T04:40:59.773Z,14.78
2023-04-20T04:43:28.192Z,14.76
2023-04-20T04:45:58.504Z,14.72
2023-04-20T04:48:25.724Z,14.79
2023-04-20T04:50:53.705Z,14.79
2023-04-20T04:53:21.839Z,14.84
2023-04-20T04:55:49.881Z,14.86
2023-04-20T04:58:17.893Z,14.92
2023-04-20T05:00:45.483Z,14.98
2023-04-20T05:03:13.735Z,14.98
2023-04-20T05:05:42.125Z,14.96
2023-04-20T05:08:10.046Z,14.98
2023-04-20T05:10:38.162Z,14.96
2023-04-20T05:13:05.915Z,14.95
2023-04-20T05:15:34.641Z,14.95
2023-04-20T05:18:02.835Z,15.05
2023-04-20T05:20:31.247Z,15.11
2023-04-20T05:22:58.814Z,15.02
2023-04-20T05:25:26.797Z,15.10
2023-04-20T05:27:54.976Z,15.19
2023-04-20T05:30:22.581Z,15.24
2023-04-20T05:32:52.346Z,15.25
2023-04-20T05:35:21.600Z,15.22
2023-04-20T05:37:49.585Z,15.24
2023-04-20T05:40:17.383Z,15.18
2023-04-20T05:42:45.382Z,15.22
2023-04-20T05:45:13.049Z,15.28
2023-04-20T05:47:41.332Z,15.34
2023-04-20T05:50:11.658Z,15.49
2023-04-20T05:52:39.376Z,15.53
2023-04-20T05:55:09.426Z,15.57
2023-04-20T05:57:42.986Z,15.63
2023-04-20T06:00:13.922Z,15.69
2023-04-20T06:02:41.627Z,15.77
2023-04-20T06:05:11.392Z,15.87
2023-04-20T06:07:39.283Z,15.94
2023-04-20T06:10:09.543Z,15.98
2023-04-20T06:12:37.386Z,15.98
2023-04-20T06:15:09.141Z,16.08
2023-04-20T06:17:41.178Z,16.15
2023-04-20T06:20:12.112Z,16.30
2023-04-20T06:23:03.567Z,16.39
2023-04-20T06:25:31.965Z,16.51
2023-04-20T06:28:00.265Z,16.59
2023-04-20T06:30:28.394Z,16.69
2023-04-20T06:32:56.513Z,16.62
2023-04-20T06:35:24.594Z,16.52
2023-04-20T06:37:52.217Z,16.42
2023-04-20T06:40:19.592Z,16.31
2023-04-20T06:42:47.984Z,16.17
2023-04-20T06:45:15.773Z,16.12
2023-04-20T06:47:44.876Z,15.96
2023-04-20T06:50:13.110Z,15.92
2023-04-20T06:52:42.109Z,15.85
2023-04-20T06:55:10.211Z,15.78
2023-04-20T06:57:39.956Z,15.78
2023-04-20T07:00:09.805Z,15.80
2023-04-20T07:02:47.572Z,15.89
2023-04-20T07:05:15.934Z,15.92
2023-04-20T07:07:43.595Z,15.94
2023-04-20T07:10:13.570Z,15.95
2023-04-20T07:12:43.203Z,15.96
2023-04-20T07:15:11.755Z,15.96
2023-04-20T07:17:39.907Z,16.09
2023-04-20T07:20:10.232Z,16.18
2023-04-20T07:22:38.672Z,16.26
2023-04-20T07:25:08.613Z,16.33
2023-04-20T07:27:37.296Z,16.39
2023-04-20T07:30:08.263Z,16.52
2023-04-20T07:32:36.102Z,16.62
2023-04-20T07:35:04.350Z,16.72
2023-04-20T07:37:32.108Z,16.78
2023-04-20T07:40:00.198Z,16.82
2023-04-20T07:42:27.955Z,16.88
2023-04-20T07:44:55.657Z,16.90
2023-04-20T07:47:23.767Z,16.84
2023-04-20T07:49:52.051Z,16.78
2023-04-20T07:52:20.403Z,16.71
2023-04-20T07:54:48.010Z,16.75
2023-04-20T07:57:15.629Z,16.75
2023-04-20T07:59:43.441Z,16.70
2023-04-20T08:02:12.308Z,16.75
2023-04-20T08:04:40.615Z,16.74
2023-04-20T08:07:09.568Z,16.74
2023-04-20T08:09:37.452Z,16.86
2023-04-20T08:12:06.849Z,16.87
2023-04-20T08:14:34.820Z,16.91
2023-04-20T08:17:02.734Z,17.07
2023-04-20T08:19:30.346Z,17.27
2023-04-20T08:21:59.353Z,17.24
2023-04-20T08:24:27.580Z,17.27
2023-04-20T08:26:55.689Z,17.34
2023-04-20T08:29:23.641Z,17.42
2023-04-20T08:31:51.872Z,17.54
2023-04-20T08:34:19.752Z,17.53
2023-04-20T08:36:47.471Z,17.46
2023-04-20T08:39:19.349Z,17.49
2023-04-20T08:41:48.089Z,17.58
2023-04-20T08:44:15.760Z,17.74
2023-04-20T08:46:43.468Z,17.87
2023-04-20T08:49:13.046Z,17.94
2023-04-20T08:51:41.724Z,17.96
2023-04-20T08:54:10.633Z,18.03
2023-04-20T08:56:39.583Z,18.14
2023-04-20T08:59:10.243Z,18.11
2023-04-20T09:01:39.433Z,18.13
2023-04-20T09:04:20.099Z,18.03
2023-04-20T09:06:51.511Z,17.91
2023-04-20T09:09:42.333Z,17.87
2023-04-20T09:12:10.412Z,17.73
2023-04-20T09:14:44.648Z,17.53
2023-04-20T09:17:14.800Z,17.34
2023-04-20T09:19:44.608Z,17.22
2023-04-20T09:22:15.084Z,17.13
2023-04-20T09:24:42.809Z,16.99
2023-04-20T09:27:16.684Z,16.94
2023-04-20T09:29:44.362Z,16.93
2023-04-20T09:32:43.157Z,17.08
2023-04-20T09:35:11.048Z,17.27
2023-04-20T09:37:48.312Z,17.58
2023-04-20T09:40:16.551Z,17.80
2023-04-20T09:42:44.648Z,18.15
2023-04-20T09:45:16.521Z,18.30
2023-04-20T09:47:44.505Z,18.33
2023-04-20T09:50:24.848Z,18.44
2023-04-20T09:52:54.297Z,18.40
2023-04-20T09:55:21.855Z,18.32
2023-04-20T09:57:49.944Z,18.42
2023-04-20T10:00:19.911Z,18.30
2023-04-20T10:02:48.551Z,18.16
2023-04-20T10:05:17.049Z,18.14
2023-04-20T10:07:44.708Z,18.13
2023-04-20T10:10:15.796Z,18.01
2023-04-20T10:12:48.914Z,17.73
2023-04-20T10:15:16.715Z,17.67
2023-04-20T10:17:44.127Z,17.66
2023-04-20T10:20:21.234Z,17.54
2023-04-20T10:22:49.004Z,17.40
2023-04-20T10:25:19.445Z,17.36
2023-04-20T10:28:21.357Z,17.23
2023-04-20T10:30:52.342Z,17.27
2023-04-20T10:33:20.384Z,17.17
2023-04-20T10:36:10.259Z,17.05
2023-04-20T10:38:38.264Z,16.98
2023-04-20T10:41:13.798Z,16.97
2023-04-20T10:43:43.356Z,16.89
2023-04-20T10:46:26.803Z,16.85
2023-04-20T10:48:56.054Z,16.76
2023-04-20T10:51:43.560Z,16.70
2023-04-20T10:54:11.569Z,16.58
2023-04-20T10:56:46.569Z,16.52
2023-04-20T10:59:19.397Z,16.43
2023-04-20T11:01:47.578Z,16.31
2023-04-20T11:04:18.300Z,16.29
2023-04-20T11:06:48.144Z,16.25
2023-04-20T11:09:23.663Z,16.20
2023-04-20T11:12:29.719Z,16.16
2023-04-20T11:14:58.772Z,16.27
2023-04-20T11:17:36.464Z,16.35
2023-04-20T11:20:11.076Z,16.39
2023-04-20T11:22:39.580Z,16.50
2023-04-20T11:25:12.654Z,16.36
2023-04-20T11:27:41.292Z,16.45
2023-04-20T11:30:10.098Z,16.51
2023-04-20T11:32:38.383Z,16.59
2023-04-20T11:35:08.782Z,16.68
2023-04-20T11:37:51.572Z,16.76
2023-04-20T11:40:26.681Z,16.84
2023-04-20T11:42:56.337Z,16.91
2023-04-20T11:45:24.514Z,16.86
2023-04-20T11:47:52.757Z,16.91
2023-04-20T11:50:21.233Z,16.97
2023-04-20T11:52:49.629Z,16.95
2023-04-20T11:55:17.849Z,17.02
2023-04-20T11:57:48.392Z,17.05
2023-04-20T12:00:18.170Z,17.06
2023-04-20T12:02:45.889Z,17.05
2023-04-20T12:05:13.853Z,16.99
2023-04-20T12:07:41.894Z,17.17
2023-04-20T12:10:11.583Z,17.43
2023-04-20T12:12:39.515Z,17.70
2023-04-20T12:15:11.527Z,17.96
2023-04-20T12:17:39.873Z,18.15
2023-04-20T12:20:12.689Z,18.18
2023-04-20T12:22:41.013Z,18.23
2023-04-20T12:25:09.947Z,18.36
2023-04-20T12:27:38.036Z,18.59
2023-04-20T12:30:09.388Z,18.97
2023-04-20T12:32:40.432Z,19.39
2023-04-20T12:35:09.576Z,19.60
2023-04-20T12:37:37.642Z,19.83
2023-04-20T12:40:08.825Z,20.11
2023-04-20T12:42:36.518Z,20.41
2023-04-20T12:45:05.300Z,20.69
2023-04-20T12:47:32.913Z,21.49
2023-04-20T12:50:00.623Z,22.24
2023-04-20T12:52:29.799Z,22.95
2023-04-20T12:54:57.776Z,22.99
2023-04-20T12:57:25.599Z,22.92
2023-04-20T12:59:53.640Z,22.76
2023-04-20T13:02:22.519Z,23.21
2023-04-20T13:04:50.794Z,23.53
2023-04-20T13:07:18.492Z,24.45
2023-04-20T13:09:45.641Z,24.78
2023-04-20T13:12:13.780Z,24.77
2023-04-20T13:14:41.825Z,25.07
2023-04-20T13:17:10.016Z,24.99
2023-04-20T13:19:37.874Z,24.48
2023-04-20T13:22:06.917Z,24.21
2023-04-20T13:24:34.678Z,23.83
2023-04-20T13:27:02.588Z,23.43
2023-04-20T13:29:30.440Z,23.12
2023-04-20T13:31:58.602Z,22.96
2023-04-20T13:34:26.120Z,22.45
2023-04-20T13:36:54.179Z,22.01
2023-04-20T13:39:22.058Z,21.58
2023-04-20T13:41:50.234Z,21.10
2023-04-20T13:44:17.987Z,20.75
2023-04-20T13:46:45.922Z,20.68
2023-04-20T13:49:14.429Z,20.96
2023-04-20T13:51:42.440Z,21.35
2023-04-20T13:54:10.394Z,21.44
2023-04-20T13:56:38.505Z,21.34
2023-04-20T13:59:06.404Z,21.20
2023-04-20T14:01:34.961Z,21.08
2023-04-20T14:04:03.352Z,20.98
2023-04-20T14:06:31.208Z,21.47
2023-04-20T14:08:58.678Z,21.53
2023-04-20T14:11:26.909Z,21.36
2023-04-20T14:13:54.569Z,20.94
2023-04-20T14:16:23.015Z,20.52
2023-04-20T14:18:50.586Z,20.21
2023-04-20T14:21:25.720Z,19.98
2023-04-20T14:23:54.678Z,19.84
2023-04-20T14:26:22.202Z,19.90
2023-04-20T14:28:51.820Z,19.93
2023-04-20T14:31:19.939Z,19.83
2023-04-20T14:33:47.804Z,19.59
2023-04-20T14:36:15.315Z,19.33
2023-04-20T14:38:43.660Z,19.21
2023-04-20T14:41:11.263Z,19.10
2023-04-20T14:43:39.230Z,19.05
2023-04-20T14:46:07.584Z,18.97
2023-04-20T14:48:38.703Z,18.87
2023-04-20T14:51:07.287Z,18.67
2023-04-20T14:53:34.820Z,18.53
2023-04-20T14:56:02.855Z,18.53
2023-04-20T14:58:30.817Z,18.77
2023-04-20T15:00:58.782Z,19.35
2023-04-20T15:03:27.179Z,19.49
2023-04-20T15:05:59.403Z,19.62
2023-04-20T15:08:27.773Z,19.64
2023-04-20T15:10:56.833Z,19.91
2023-04-20T15:13:25.057Z,20.02
2023-04-20T15:15:54.986Z,19.92
2023-04-20T15:18:23.662Z,19.58
2023-04-20T15:20:53.977Z,19.26
2023-04-20T15:23:24.758Z,19.10
2023-04-20T15:25:53.450Z,18.81
2023-04-20T15:28:21.038Z,18.69
2023-04-20T15:30:49.016Z,18.61
2023-04-20T15:33:17.520Z,18.56
2023-04-20T15:35:48.307Z,18.26
2023-04-20T15:38:16.578Z,18.06
2023-04-20T15:40:45.129Z,18.03
2023-04-20T15:43:13.382Z,18.08
2023-04-20T15:45:42.867Z,17.97
2023-04-20T15:48:13.118Z,17.76
2023-04-20T15:50:40.584Z,17.60
2023-04-20T15:53:08.255Z,17.40
2023-04-20T15:55:39.504Z,17.34
2023-04-20T15:58:07.295Z,17.52
2023-04-20T16:00:35.183Z,17.90
2023-04-20T16:03:03.338Z,18.17
2023-04-20T16:05:30.982Z,18.57
2023-04-20T16:07:58.955Z,18.88
2023-04-20T16:10:27.732Z,19.22
2023-04-20T16:12:56.108Z,19.73
2023-04-20T16:15:23.588Z,20.37
2023-04-20T16:17:51.103Z,21.15
2023-04-20T16:20:18.936Z,21.87
2023-04-20T16:22:46.429Z,22.30
2023-04-20T16:25:22.828Z,22.70
2023-04-20T16:27:51.723Z,22.85
2023-04-20T16:30:19.468Z,22.23
2023-04-20T16:32:47.115Z,22.26
2023-04-20T16:35:14.817Z,22.20
2023-04-20T16:37:42.785Z,21.46
2023-04-20T16:40:11.838Z,20.65
2023-04-20T16:42:39.922Z,19.97
2023-04-20T16:45:10.195Z,19.34
2023-04-20T16:47:38.279Z,18.73
2023-04-20T16:50:09.276Z,18.25
2023-04-20T16:52:37.123Z,17.89
2023-04-20T16:55:06.454Z,17.57
2023-04-20T16:57:34.042Z,17.29
2023-04-20T17:00:02.251Z,17.13
2023-04-20T17:02:33.184Z,16.95
2023-04-20T17:05:00.733Z,16.84
2023-04-20T17:07:29.228Z,16.75
2023-04-20T17:09:57.445Z,16.64
2023-04-20T17:12:25.628Z,16.63
2023-04-20T17:14:53.090Z,16.52
2023-04-20T17:17:21.106Z,16.43
2023-04-20T17:19:52.146Z,16.33
2023-04-20T17:22:20.065Z,16.35
2023-04-20T17:24:48.092Z,16.35
2023-04-20T17:27:16.128Z,16.29
2023-04-20T17:29:44.937Z,16.26
2023-04-20T17:32:13.409Z,16.16
2023-04-20T17:34:41.958Z,16.15
2023-04-20T17:37:13.130Z,16.08
2023-04-20T17:39:40.889Z,15.98
2023-04-20T17:42:08.008Z,15.93
2023-04-20T17:44:36.196Z,15.82
2023-04-20T17:47:04.312Z,15.77
2023-04-20T17:49:32.641Z,15.69
2023-04-20T17:52:00.624Z,15.63
2023-04-20T17:54:28.837Z,15.60
2023-04-20T17:56:58.148Z,15.55
2023-04-20T17:59:25.852Z,15.54
2023-04-20T18:01:54.111Z,15.52
2023-04-20T18:04:24.839Z,15.39
2023-04-20T18:06:52.795Z,15.43
2023-04-20T18:09:20.515Z,15.34
2023-04-20T18:11:48.506Z,15.34
2023-04-20T18:14:16.604Z,15.34
2023-04-20T18:16:44.630Z,15.39
2023-04-20T18:19:12.835Z,15.34
2023-04-20T18:21:41.007Z,15.34
2023-04-20T18:24:08.997Z,15.26
2023-04-20T18:26:37.146Z,15.22
2023-04-20T18:29:04.845Z,15.15
2023-04-20T18:31:35.491Z,15.06
2023-04-20T18:34:03.420Z,14.96
2023-04-20T18:36:32.229Z,14.93
2023-04-20T18:38:59.945Z,14.87
2023-04-20T18:41:29.405Z,14.85
2023-04-20T18:43:57.017Z,14.81
2023-04-20T18:46:25.779Z,14.78
2023-04-20T18:48:55.932Z,14.75
2023-04-20T18:51:23.778Z,14.71
2023-04-20T18:53:51.547Z,14.72
2023-04-20T18:56:19.966Z,14.71
2023-04-20T18:58:48.700Z,14.71
2023-04-20T19:01:16.560Z,14.67
2023-04-20T19:03:47.669Z,14.71
2023-04-20T19:06:16.359Z,14.69
2023-04-20T19:08:43.978Z,14.69
2023-04-20T19:11:12.461Z,14.65
2023-04-20T19:13:44.509Z,14.61
2023-04-20T19:16:12.486Z,14.68
2023-04-20T19:18:40.324Z,14.70
2023-04-20T19:21:07.530Z,14.72
2023-04-20T19:23:36.306Z,14.72
2023-04-20T19:26:04.589Z,14.74
2023-04-20T19:28:32.653Z,14.73
2023-04-20T19:31:00.458Z,14.71
2023-04-20T19:33:27.976Z,14.71
2023-04-20T19:35:56.139Z,14.70
2023-04-20T19:38:26.538Z,14.67
2023-04-20T19:40:54.288Z,14.59
2023-04-20T19:43:23.236Z,14.56
2023-04-20T19:45:51.479Z,14.49
2023-04-20T19:48:18.989Z,14.48
2023-04-20T19:50:46.917Z,14.49
2023-04-20T19:53:15.501Z,14.46
2023-04-20T19:55:43.224Z,14.46
2023-04-20T19:58:11.052Z,14.39
2023-04-20T20:00:38.922Z,14.37
2023-04-20T20:03:08.275Z,14.28
2023-04-20T20:05:36.186Z,14.18
2023-04-20T20:08:04.409Z,14.22
2023-04-20T20:10:32.632Z,14.17
2023-04-20T20:13:00.233Z,14.12
2023-04-20T20:15:28.223Z,14.15
2023-04-20T20:17:55.947Z,14.16
2023-04-20T20:20:23.932Z,14.13
2023-04-20T20:22:51.472Z,14.11
2023-04-20T20:25:22.076Z,14.11
2023-04-20T20:27:55.887Z,13.99
2023-04-20T20:30:24.055Z,14.02
2023-04-20T20:32:51.825Z,13.95
2023-04-20T20:35:19.898Z,13.90
2023-04-20T20:37:48.484Z,13.82
2023-04-20T20:40:16.011Z,13.77
2023-04-20T20:42:45.369Z,13.80
2023-04-20T20:45:13.303Z,13.80
2023-04-20T20:47:41.115Z,13.79
2023-04-20T20:50:10.080Z,13.76
2023-04-20T20:52:38.229Z,13.84
2023-04-20T20:55:06.692Z,13.88
2023-04-20T20:57:34.365Z,13.92
2023-04-20T21:00:02.044Z,13.97
2023-04-20T21:02:30.039Z,13.98
2023-04-20T21:05:00.482Z,13.89
2023-04-20T21:07:28.059Z,13.89
2023-04-20T21:09:55.796Z,13.89
2023-04-20T21:12:23.370Z,13.88
2023-04-20T21:14:52.247Z,13.84
2023-04-20T21:17:20.429Z,13.80
2023-04-20T21:19:47.840Z,13.87
2023-04-20T21:22:15.498Z,13.85
2023-04-20T21:24:44.197Z,13.97
2023-04-20T21:27:11.947Z,14.00
2023-04-20T21:29:39.873Z,14.01
2023-04-20T21:32:07.287Z,14.06
2023-04-20T21:34:35.028Z,14.03
2023-04-20T21:37:06.233Z,14.02
2023-04-20T21:39:34.177Z,14.05
2023-04-20T21:42:03.675Z,14.01
2023-04-20T21:44:31.596Z,14.06
2023-04-20T21:46:59.153Z,14.09
2023-04-20T21:49:27.538Z,14.10
2023-04-20T21:51:55.275Z,14.05
2023-04-20T21:54:23.196Z,14.10
2023-04-20T21:56:50.722Z,14.16
2023-04-20T21:59:20.480Z,14.06
2023-04-20T22:01:48.300Z,14.05
2023-04-20T22:04:16.893Z,14.01
2023-04-20T22:06:45.064Z,14.09
2023-04-20T22:09:13.449Z,14.08
2023-04-20T22:11:41.060Z,14.04
2023-04-20T22:14:09.008Z,14.06
2023-04-20T22:16:36.534Z,14.12
2023-04-20T22:19:04.573Z,14.09
2023-04-20T22:21:32.204Z,14.14
2023-04-20T22:23:59.417Z,14.21
2023-04-20T22:26:27.436Z,14.19
2023-04-20T22:28:55.505Z,14.20
2023-04-20T22:31:23.060Z,14.20
2023-04-20T22:33:51.035Z,14.28
2023-04-20T22:36:18.957Z,14.31
2023-04-20T22:38:46.992Z,14.30
2023-04-20T22:41:17.310Z,14.29
2023-04-20T22:43:45.202Z,14.27
2023-04-20T22:46:13.299Z,14.27
2023-04-20T22:48:41.782Z,14.20
2023-04-20T22:51:09.766Z,14.20
2023-04-20T22:53:37.771Z,14.17
2023-04-20T22:56:08.716Z,14.19
2023-04-20T22:58:36.766Z,14.18
2023-04-20T23:01:04.433Z,14.20
2023-04-20T23:03:36.336Z,14.14
2023-04-20T23:06:05.184Z,14.19
2023-04-20T23:08:33.575Z,14.21
2023-04-20T23:11:01.557Z,14.22
2023-04-20T23:13:29.208Z,14.21
2023-04-20T23:15:57.205Z,14.17
2023-04-20T23:18:25.368Z,14.14
2023-04-20T23:20:53.134Z,14.11
2023-04-20T23:23:21.100Z,14.11
2023-04-20T23:25:49.157Z,14.07
2023-04-20T23:28:17.070Z,14.03
2023-04-20T23:30:45.260Z,14.03
2023-04-20T23:33:13.370Z,13.93
2023-04-20T23:35:41.135Z,13.87
2023-04-20T23:38:09.286Z,13.88
2023-04-20T23:40:37.298Z,13.82
2023-04-20T23:43:05.367Z,13.78
2023-04-20T23:45:33.421Z,13.78
2023-04-20T23:48:01.749Z,13.76
2023-04-20T23:50:29.499Z,13.72
2023-04-20T23:52:57.746Z,13.70
2023-04-20T23:55:25.469Z,13.74
2023-04-20T23:57:54.417Z,13.72
